Aslo, Minnesota
Current Conditions -  °F | °C
As of 9:33 PM on Monday 20 Oct 2014 (Local Time) from KMZH Reporting Station
Overcast Overcast  
Wind Chill:   Ceiling: 2600
Heat Index:   Visibility: 10mi
Dew Point:   Wind: 0mph
Humidity: 66%   Direction: NA
Pressure: 30.08"   Gusts: NA
Location:  46.2004°N, 92.675°W
Report Text: KMZH 210233Z AUTO 00000KT 10SM OVC026 08/02 A3008 RMK AO2
Loading
Personal Weather Stations






























Interactive Weather Map
Tropical Storm Tracking
New forecast layout! Learn more

10-Day Weather Forecast

Advertisements
Track Severe Weather on mobile